Terminal Aerodrome Forecast
Issued by NWS Omaha/Valley, NE

Home | Current Version | Previous Version | Text Only | Print | Product List | Glossary On
Versions: 1 2 3 4 5 6 7 8 9 10 11 12 13 14 15 16 17 18 19 20 21 22 23 24 25 26 27 28 29 30 31 32 33 34 35 36
000
FTUS43 KOAX 220829 AAA
TAFOMA
TAF AMD
KOMA 220829Z 2208/2306 VRB03KT P6SM SCT002
      TEMPO 2209/2213 1/4SM FG BKN002
     FM221400 15005KT P6SM SCT250
     FM221700 18009KT P6SM SCT250
     FM230100 15004KT P6SM BKN250=

USA.gov is the U.S. government's official web portal to all federal, state and local government web resources and services.